createdAt,value
2023-05-21T00:00:03.307Z,98090.77
2023-05-21T00:02:45.154Z,98087.11
2023-05-21T00:05:18.914Z,98082.33
2023-05-21T00:07:49.858Z,98081.09
2023-05-21T00:10:22.948Z,98081.84
2023-05-21T00:12:56.309Z,98079.54
2023-05-21T00:15:28.999Z,98080.59
2023-05-21T00:18:01.713Z,98075.77
2023-05-21T00:20:35.006Z,98080.42
2023-05-21T00:23:06.073Z,98076.44
2023-05-21T00:25:38.732Z,98074.14
2023-05-21T00:28:13.350Z,98073.80
2023-05-21T00:30:46.289Z,98075.54
2023-05-21T00:33:18.978Z,98076.85
2023-05-21T00:35:51.818Z,98072.94
2023-05-21T00:38:28.438Z,98072.02
2023-05-21T00:41:01.608Z,98071.27
2023-05-21T00:43:34.327Z,98069.16
2023-05-21T00:46:07.340Z,98071.06
2023-05-21T00:48:40.235Z,98067.60
2023-05-21T00:51:13.381Z,98070.23
2023-05-21T00:53:47.743Z,98069.06
2023-05-21T00:56:22.370Z,98069.15
2023-05-21T00:58:57.900Z,98068.92
2023-05-21T01:01:34.158Z,98066.03
2023-05-21T01:04:07.283Z,98065.81
2023-05-21T01:06:40.141Z,98060.40
2023-05-21T01:09:12.523Z,98057.54
2023-05-21T01:11:48.630Z,98057.30
2023-05-21T01:14:22.739Z,98058.07
2023-05-21T01:16:56.806Z,98058.71
2023-05-21T01:19:33.015Z,98051.30
2023-05-21T01:22:09.524Z,98049.43
2023-05-21T01:24:42.165Z,98051.88
2023-05-21T01:27:15.606Z,98052.33
2023-05-21T01:29:48.430Z,98050.08
2023-05-21T01:32:28.974Z,98049.80
2023-05-21T01:35:06.474Z,98050.20
2023-05-21T01:37:46.987Z,98046.17
2023-05-21T01:40:27.845Z,98044.09
2023-05-21T01:43:01.583Z,98048.73
2023-05-21T01:45:36.625Z,98046.19
2023-05-21T01:48:12.059Z,98041.36
2023-05-21T01:50:46.698Z,98042.29
2023-05-21T01:53:19.349Z,98045.71
2023-05-21T01:55:52.160Z,98038.31
2023-05-21T01:58:27.725Z,98040.12
2023-05-21T02:01:00.792Z,98038.11
2023-05-21T02:03:33.483Z,98038.70
2023-05-21T02:06:06.720Z,98042.66
2023-05-21T02:08:38.867Z,98041.08
2023-05-21T02:11:11.816Z,98038.70
2023-05-21T02:13:46.417Z,98039.70
2023-05-21T02:16:20.530Z,98033.67
2023-05-21T02:18:57.564Z,98037.55
2023-05-21T02:21:30.628Z,98033.98
2023-05-21T02:24:03.640Z,98036.60
2023-05-21T02:26:39.146Z,98035.09
2023-05-21T02:29:11.614Z,98033.80
2023-05-21T02:31:44.128Z,98034.66
2023-05-21T02:34:17.016Z,98032.30
2023-05-21T02:36:55.622Z,98032.99
2023-05-21T02:39:28.604Z,98031.13
2023-05-21T02:42:01.573Z,98031.50
2023-05-21T02:44:33.110Z,98028.92
2023-05-21T02:47:06.902Z,98025.89
2023-05-21T02:49:39.540Z,98018.31
2023-05-21T02:52:12.399Z,98016.66
2023-05-21T02:54:46.155Z,98017.12
2023-05-21T02:57:19.325Z,98015.60
2023-05-21T02:59:52.763Z,98018.11
2023-05-21T03:02:27.146Z,98017.80
2023-05-21T03:05:01.085Z,98014.36
2023-05-21T03:07:34.527Z,98017.09
2023-05-21T03:10:10.020Z,98016.64
2023-05-21T03:12:42.755Z,98017.21
2023-05-21T03:15:16.133Z,98012.39
2023-05-21T03:17:49.275Z,98012.54
2023-05-21T03:20:21.951Z,98013.73
2023-05-21T03:22:55.612Z,98008.91
2023-05-21T03:25:28.335Z,98011.25
2023-05-21T03:28:01.437Z,98011.05
2023-05-21T03:31:03.358Z,98008.90
2023-05-21T03:33:45.192Z,98004.23
2023-05-21T03:36:33.358Z,98000.52
2023-05-21T03:39:06.082Z,98001.91
2023-05-21T03:41:39.611Z,97999.91
2023-05-21T03:44:20.252Z,98000.21
2023-05-21T03:47:02.682Z,98003.80
2023-05-21T03:49:38.694Z,98003.11
2023-05-21T03:52:12.005Z,97999.09
2023-05-21T03:54:44.857Z,97998.55
2023-05-21T03:57:17.492Z,97997.61
2023-05-21T03:59:51.552Z,98000.27
2023-05-21T04:02:25.041Z,98002.16
2023-05-21T04:04:58.684Z,98000.48
2023-05-21T04:07:32.041Z,97999.16
2023-05-21T04:10:07.332Z,98001.91
2023-05-21T04:12:39.952Z,98001.79
2023-05-21T04:15:14.876Z,97999.56
2023-05-21T04:17:50.682Z,98000.52
2023-05-21T04:20:23.532Z,98000.72
2023-05-21T04:22:57.206Z,98000.40
2023-05-21T04:25:30.071Z,97996.55
2023-05-21T04:28:03.113Z,97993.55
2023-05-21T04:30:36.866Z,97986.67
2023-05-21T04:33:11.111Z,97991.70
2023-05-21T04:35:44.981Z,97992.66
2023-05-21T04:38:21.139Z,97996.20
2023-05-21T04:40:56.182Z,97994.09
2023-05-21T04:43:29.051Z,97995.88
2023-05-21T04:46:03.330Z,97996.27
2023-05-21T04:48:36.265Z,97991.08
2023-05-21T04:51:09.460Z,97993.61
2023-05-21T04:53:43.093Z,97994.14
2023-05-21T04:56:16.258Z,97997.98
2023-05-21T04:58:49.784Z,97993.98
2023-05-21T05:01:22.402Z,97995.23
2023-05-21T05:03:55.520Z,97993.96
2023-05-21T05:06:28.259Z,97989.30
2023-05-21T05:09:04.950Z,97991.44
2023-05-21T05:11:39.374Z,97995.15
2023-05-21T05:14:12.734Z,97997.35
2023-05-21T05:16:44.046Z,98000.55
2023-05-21T05:19:17.307Z,97998.92
2023-05-21T05:21:50.063Z,97998.14
2023-05-21T05:24:22.745Z,98002.67
2023-05-21T05:26:55.534Z,98004.56
2023-05-21T05:29:28.258Z,98003.50
2023-05-21T05:32:00.954Z,98001.93
2023-05-21T05:34:34.166Z,97998.52
2023-05-21T05:37:07.207Z,97999.32
2023-05-21T05:39:40.182Z,97997.36
2023-05-21T05:42:13.534Z,97999.55
2023-05-21T05:44:46.321Z,97997.68
2023-05-21T05:47:19.599Z,98001.88
2023-05-21T05:49:50.731Z,98000.35
2023-05-21T05:52:23.426Z,98003.30
2023-05-21T05:54:56.102Z,98002.67
2023-05-21T05:57:27.449Z,98003.67
2023-05-21T06:00:04.708Z,98003.10
2023-05-21T06:02:45.339Z,98003.92
2023-05-21T06:05:19.902Z,98006.23
2023-05-21T06:07:52.932Z,98002.48
2023-05-21T06:10:25.819Z,98004.23
2023-05-21T06:12:59.111Z,98003.26
2023-05-21T06:15:31.982Z,98003.46
2023-05-21T06:18:05.017Z,98004.77
2023-05-21T06:20:37.871Z,98003.31
2023-05-21T06:23:10.577Z,98001.79
2023-05-21T06:25:43.660Z,97999.36
2023-05-21T06:28:18.151Z,97998.58
2023-05-21T06:30:51.396Z,97996.82
2023-05-21T06:33:25.026Z,97993.39
2023-05-21T06:35:58.899Z,97994.67
2023-05-21T06:38:29.793Z,97991.39
2023-05-21T06:41:02.511Z,97991.52
2023-05-21T06:43:50.063Z,97985.05
2023-05-21T06:46:39.946Z,97981.23
2023-05-21T06:49:15.770Z,97978.80
2023-05-21T06:51:50.650Z,97974.23
2023-05-21T06:54:24.947Z,97974.34
2023-05-21T06:56:59.663Z,97975.62
2023-05-21T06:59:32.458Z,97976.02
2023-05-21T07:02:06.956Z,97972.23
2023-05-21T07:04:41.389Z,97973.15
2023-05-21T07:07:17.620Z,97967.91
2023-05-21T07:09:50.498Z,97965.60
2023-05-21T07:12:23.270Z,97969.34
2023-05-21T07:14:59.445Z,97970.83
2023-05-21T07:17:32.557Z,97974.18
2023-05-21T07:20:08.160Z,97973.45
2023-05-21T07:22:45.259Z,97972.94
2023-05-21T07:25:18.605Z,97978.38
2023-05-21T07:27:51.373Z,97980.52
2023-05-21T07:30:24.729Z,97978.48
2023-05-21T07:32:58.264Z,97974.86
2023-05-21T07:35:31.539Z,97970.81
2023-05-21T07:38:04.315Z,97970.45
2023-05-21T07:40:37.149Z,97972.61
2023-05-21T07:43:11.139Z,97970.04
2023-05-21T07:45:44.548Z,97970.67
2023-05-21T07:48:17.271Z,97969.73
2023-05-21T07:50:58.822Z,97975.21
2023-05-21T07:53:33.670Z,97975.23
2023-05-21T07:56:09.095Z,97973.23
2023-05-21T07:58:44.335Z,97969.45
2023-05-21T08:01:17.859Z,97968.92
2023-05-21T08:03:50.647Z,97968.50
2023-05-21T08:06:27.293Z,97965.69
2023-05-21T08:09:00.490Z,97964.76
2023-05-21T08:11:34.059Z,97965.00
2023-05-21T08:14:07.619Z,97963.48
2023-05-21T08:16:38.532Z,97961.58
2023-05-21T08:19:13.760Z,97960.77
2023-05-21T08:21:46.532Z,97961.95
2023-05-21T08:24:19.351Z,97959.65
2023-05-21T08:26:52.813Z,97959.52
2023-05-21T08:29:25.863Z,97958.52
2023-05-21T08:32:00.084Z,97956.30
2023-05-21T08:34:36.221Z,97957.72
2023-05-21T08:37:31.932Z,97956.86
2023-05-21T08:40:15.703Z,97960.41
2023-05-21T08:42:49.483Z,97962.51
2023-05-21T08:45:29.794Z,97959.44
2023-05-21T08:48:06.405Z,97957.26
2023-05-21T08:50:39.857Z,97955.95
2023-05-21T08:53:28.103Z,97955.52
2023-05-21T08:56:03.950Z,97956.98
2023-05-21T08:58:46.924Z,97953.73
2023-05-21T09:01:24.074Z,97954.87
2023-05-21T09:04:19.688Z,97950.59
2023-05-21T09:06:58.417Z,97947.27
2023-05-21T09:09:56.687Z,97951.45
2023-05-21T09:12:32.269Z,97948.73
2023-05-21T09:15:06.026Z,97951.94
2023-05-21T09:17:41.725Z,97949.72
2023-05-21T09:20:34.924Z,97955.16
2023-05-21T09:23:12.987Z,97948.09
2023-05-21T09:25:49.441Z,97949.23
2023-05-21T09:28:28.792Z,97943.64
2023-05-21T09:31:05.205Z,97941.02
2023-05-21T09:33:47.339Z,97941.86
2023-05-21T09:36:21.963Z,97942.14
2023-05-21T09:38:54.848Z,97942.77
2023-05-21T09:41:36.324Z,97942.71
2023-05-21T09:44:13.019Z,97943.39
2023-05-21T09:46:46.079Z,97940.73
2023-05-21T09:49:29.563Z,97943.79
2023-05-21T09:52:04.157Z,97941.52
2023-05-21T09:54:38.053Z,97947.70
2023-05-21T09:57:11.551Z,97945.36
2023-05-21T09:59:44.699Z,97945.59
2023-05-21T10:02:26.459Z,97949.42
2023-05-21T10:05:01.271Z,97944.73
2023-05-21T10:07:37.690Z,97942.05
2023-05-21T10:10:17.068Z,97941.41
2023-05-21T10:12:53.749Z,97941.56
2023-05-21T10:15:30.138Z,97942.71
2023-05-21T10:18:05.310Z,97940.95
2023-05-21T10:20:39.434Z,97939.55
2023-05-21T10:23:14.636Z,97934.73
2023-05-21T10:25:48.065Z,97934.95
2023-05-21T10:28:22.000Z,97938.16
2023-05-21T10:30:55.953Z,97942.11
2023-05-21T10:33:31.640Z,97935.59
2023-05-21T10:36:06.799Z,97936.39
2023-05-21T10:38:40.849Z,97933.10
2023-05-21T10:41:15.830Z,97923.83
2023-05-21T10:44:02.872Z,97931.07
2023-05-21T10:47:06.028Z,97931.90
2023-05-21T10:49:57.218Z,97927.98
2023-05-21T10:52:58.970Z,97930.88
2023-05-21T10:55:49.107Z,97929.58
2023-05-21T10:58:54.845Z,97932.04
2023-05-21T11:01:34.243Z,97924.11
2023-05-21T11:04:07.748Z,97926.70
2023-05-21T11:06:40.480Z,97923.20
2023-05-21T11:09:18.159Z,97922.60
2023-05-21T11:11:54.675Z,97922.98
2023-05-21T11:14:41.028Z,97920.39
2023-05-21T11:17:18.494Z,97913.09
2023-05-21T11:19:52.710Z,97916.69
2023-05-21T11:22:28.476Z,97920.05
2023-05-21T11:25:05.058Z,97917.52
2023-05-21T11:27:39.635Z,97913.20
2023-05-21T11:30:17.666Z,97909.73
2023-05-21T11:33:17.291Z,97911.13
2023-05-21T11:36:02.013Z,97912.33
2023-05-21T11:38:35.675Z,97911.39
2023-05-21T11:41:11.322Z,97908.23
2023-05-21T11:43:47.420Z,97902.34
2023-05-21T11:46:21.305Z,97906.52
2023-05-21T11:48:56.950Z,97904.99
2023-05-21T11:51:32.290Z,97901.12
2023-05-21T11:54:10.116Z,97902.66
2023-05-21T11:56:48.164Z,97904.73
2023-05-21T11:59:22.252Z,97902.77
2023-05-21T12:01:56.713Z,97898.58
2023-05-21T12:04:33.954Z,97900.89
2023-05-21T12:07:08.380Z,97897.64
2023-05-21T12:09:44.940Z,97893.70
2023-05-21T12:12:19.187Z,97899.00
2023-05-21T12:14:55.298Z,97896.36
2023-05-21T12:17:32.056Z,97898.76
2023-05-21T12:20:08.430Z,97897.94
2023-05-21T12:22:45.182Z,97897.38
2023-05-21T12:25:20.428Z,97894.59
2023-05-21T12:27:58.507Z,97897.70
2023-05-21T12:30:41.458Z,97898.63
2023-05-21T12:33:14.906Z,97898.08
2023-05-21T12:35:50.456Z,97896.27
2023-05-21T12:38:23.333Z,97892.30
2023-05-21T12:40:56.729Z,97894.90
2023-05-21T12:43:35.615Z,97888.57
2023-05-21T12:46:08.944Z,97895.82
2023-05-21T12:48:41.722Z,97891.34
2023-05-21T12:51:12.823Z,97888.38
2023-05-21T12:53:46.883Z,97880.45
2023-05-21T12:56:19.765Z,97884.95
2023-05-21T12:58:54.982Z,97878.66
2023-05-21T13:01:28.657Z,97878.82
2023-05-21T13:04:01.444Z,97882.00
2023-05-21T13:06:43.151Z,97881.46
2023-05-21T13:09:16.098Z,97879.59
2023-05-21T13:11:46.795Z,97877.64
2023-05-21T13:14:19.682Z,97872.10
2023-05-21T13:16:50.338Z,97873.30
2023-05-21T13:19:23.549Z,97879.56
2023-05-21T13:21:57.018Z,97877.94
2023-05-21T13:24:30.358Z,97875.52
2023-05-21T13:27:03.392Z,97875.90
2023-05-21T13:29:38.648Z,97877.27
2023-05-21T13:32:11.999Z,97870.05
2023-05-21T13:34:44.777Z,97869.14
2023-05-21T13:37:17.704Z,97865.36
2023-05-21T13:39:48.587Z,97863.17
2023-05-21T13:42:21.496Z,97868.70
2023-05-21T13:44:54.891Z,97866.70
2023-05-21T13:47:28.716Z,97860.05
2023-05-21T13:50:01.877Z,97857.86
2023-05-21T13:52:37.352Z,97854.05
2023-05-21T13:55:12.434Z,97857.37
2023-05-21T13:57:47.568Z,97855.28
2023-05-21T14:00:20.199Z,97855.55
2023-05-21T14:02:53.249Z,97851.65
2023-05-21T14:05:26.305Z,97846.13
2023-05-21T14:07:59.440Z,97849.77
2023-05-21T14:10:32.241Z,97845.00
2023-05-21T14:13:15.822Z,97844.46
2023-05-21T14:15:51.553Z,97839.36
2023-05-21T14:18:22.571Z,97838.73
2023-05-21T14:20:55.383Z,97837.53
2023-05-21T14:23:28.391Z,97842.69
2023-05-21T14:25:59.183Z,97840.04
2023-05-21T14:28:31.955Z,97839.65
2023-05-21T14:31:04.743Z,97836.11
2023-05-21T14:33:39.126Z,97832.65
2023-05-21T14:36:12.150Z,97834.34
2023-05-21T14:38:45.796Z,97830.84
2023-05-21T14:41:18.545Z,97829.09
2023-05-21T14:43:51.284Z,97831.73
2023-05-21T14:46:25.826Z,97828.96
2023-05-21T14:49:04.088Z,97830.38
2023-05-21T14:51:42.029Z,97827.90
2023-05-21T14:54:15.683Z,97828.40
2023-05-21T14:56:49.390Z,97828.74
2023-05-21T14:59:24.543Z,97825.21
2023-05-21T15:02:00.434Z,97822.93
2023-05-21T15:04:37.438Z,97825.14
2023-05-21T15:07:13.077Z,97825.62
2023-05-21T15:09:51.473Z,97822.77
2023-05-21T15:12:33.027Z,97823.96
2023-05-21T15:15:13.758Z,97825.32
2023-05-21T15:17:49.206Z,97823.96
2023-05-21T15:20:27.696Z,97825.31
2023-05-21T15:25:39.491Z,97825.08
2023-05-21T15:28:14.900Z,97826.59
2023-05-21T15:30:51.196Z,97822.52
2023-05-21T15:33:25.261Z,97823.91
2023-05-21T15:36:03.350Z,97824.23
2023-05-21T15:38:37.550Z,97822.67
2023-05-21T15:41:13.945Z,97817.83
2023-05-21T15:43:51.449Z,97816.48
2023-05-21T15:46:24.397Z,97812.44
2023-05-21T15:48:58.339Z,97815.52
2023-05-21T15:51:35.361Z,97815.32
2023-05-21T15:54:10.185Z,97814.13
2023-05-21T15:56:46.128Z,97814.90
2023-05-21T15:59:22.755Z,97816.42
2023-05-21T16:01:57.657Z,97817.56
2023-05-21T16:04:34.311Z,97815.71
2023-05-21T16:07:09.687Z,97811.91
2023-05-21T16:09:44.098Z,97813.13
2023-05-21T16:12:22.228Z,97815.23
2023-05-21T16:14:59.281Z,97814.16
2023-05-21T16:17:40.461Z,97818.48
2023-05-21T16:20:16.593Z,97814.46
2023-05-21T16:22:50.480Z,97814.70
2023-05-21T16:25:26.751Z,97816.55
2023-05-21T16:27:59.659Z,97813.50
2023-05-21T16:30:32.893Z,97814.51
2023-05-21T16:33:07.352Z,97812.73
2023-05-21T16:35:40.069Z,97815.06
2023-05-21T16:38:17.656Z,97812.44
2023-05-21T16:40:51.689Z,97815.04
2023-05-21T16:43:25.226Z,97815.81
2023-05-21T16:45:58.027Z,97814.50
2023-05-21T16:48:33.293Z,97813.76
2023-05-21T16:51:06.273Z,97812.61
2023-05-21T16:53:40.052Z,97812.73
2023-05-21T16:56:12.919Z,97813.81
2023-05-21T16:58:44.027Z,97816.40
2023-05-21T17:01:16.506Z,97824.25
2023-05-21T17:03:49.656Z,97828.12
2023-05-21T17:06:20.443Z,97828.68
2023-05-21T17:08:53.352Z,97831.95
2023-05-21T17:11:26.005Z,97833.67
2023-05-21T17:13:59.250Z,97832.36
2023-05-21T17:16:30.007Z,97831.02
2023-05-21T17:19:03.526Z,97830.23
2023-05-21T17:21:38.202Z,97827.31
2023-05-21T17:24:11.246Z,97832.23
2023-05-21T17:26:41.992Z,97829.61
2023-05-21T17:29:15.505Z,97827.60
2023-05-21T17:31:48.245Z,97826.03
2023-05-21T17:34:21.830Z,97826.33
2023-05-21T17:36:55.720Z,97828.59
2023-05-21T17:39:29.017Z,97827.88
2023-05-21T17:42:01.849Z,97833.63
2023-05-21T17:44:35.330Z,97831.47
2023-05-21T17:47:09.649Z,97830.84
2023-05-21T17:49:44.816Z,97828.91
2023-05-21T17:52:17.640Z,97828.07
2023-05-21T17:54:50.718Z,97828.45
2023-05-21T17:57:22.878Z,97833.94
2023-05-21T17:59:58.949Z,97835.33
2023-05-21T18:02:33.157Z,97839.59
2023-05-21T18:05:10.315Z,97841.14
2023-05-21T18:07:45.726Z,97842.77
2023-05-21T18:10:21.648Z,97842.93
2023-05-21T18:12:57.083Z,97840.93
2023-05-21T18:15:34.290Z,97839.09
2023-05-21T18:18:08.619Z,97835.61
2023-05-21T18:20:44.397Z,97837.55
2023-05-21T18:23:20.323Z,97838.03
2023-05-21T18:25:54.517Z,97841.60
2023-05-21T18:28:32.742Z,97847.29
2023-05-21T18:31:08.659Z,97848.85
2023-05-21T18:33:43.271Z,97850.67
2023-05-21T18:36:19.347Z,97848.83
2023-05-21T18:38:54.449Z,97846.41
2023-05-21T18:41:28.826Z,97850.70
2023-05-21T18:44:02.423Z,97850.38
2023-05-21T18:46:38.833Z,97849.96
2023-05-21T18:49:12.518Z,97850.30
2023-05-21T18:51:47.748Z,97850.21
2023-05-21T18:54:20.419Z,97849.39
2023-05-21T18:56:54.477Z,97854.35
2023-05-21T18:59:33.102Z,97857.67
2023-05-21T19:02:09.446Z,97856.80
2023-05-21T19:04:43.994Z,97859.36
2023-05-21T19:07:17.654Z,97859.69
2023-05-21T19:09:53.919Z,97860.48
2023-05-21T19:12:27.653Z,97861.19
2023-05-21T19:15:02.406Z,97861.58
2023-05-21T19:17:37.116Z,97864.37
2023-05-21T19:20:11.594Z,97872.01
2023-05-21T19:22:46.368Z,97870.80
2023-05-21T19:25:19.245Z,97870.83
2023-05-21T19:27:53.385Z,97871.35
2023-05-21T19:30:27.578Z,97869.85
2023-05-21T19:33:01.824Z,97873.34
2023-05-21T19:35:35.402Z,97873.83
2023-05-21T19:38:08.805Z,97871.62
2023-05-21T19:40:39.840Z,97869.98
2023-05-21T19:43:13.317Z,97868.76
2023-05-21T19:45:46.332Z,97864.81
2023-05-21T19:48:19.405Z,97863.09
2023-05-21T19:50:52.381Z,97861.15
2023-05-21T19:53:28.199Z,97855.17
2023-05-21T19:56:01.241Z,97854.77
2023-05-21T19:58:35.170Z,97854.47
2023-05-21T20:01:06.727Z,97850.73
2023-05-21T20:03:43.523Z,97852.46
2023-05-21T20:06:19.405Z,97850.05
2023-05-21T20:08:56.120Z,97847.63
2023-05-21T20:11:28.805Z,97847.52
2023-05-21T20:14:02.802Z,97846.21
2023-05-21T20:16:35.440Z,97847.27
2023-05-21T20:19:11.375Z,97847.42
2023-05-21T20:21:45.720Z,97850.80
2023-05-21T20:24:20.005Z,97850.46
2023-05-21T20:26:52.540Z,97853.66
2023-05-21T20:29:25.547Z,97855.96
2023-05-21T20:31:58.294Z,97856.30
2023-05-21T20:34:31.305Z,97864.16
2023-05-21T20:37:03.924Z,97864.77
2023-05-21T20:39:38.692Z,97863.79
2023-05-21T20:42:15.428Z,97862.00
2023-05-21T20:44:50.106Z,97860.30
2023-05-21T20:47:23.681Z,97861.55
2023-05-21T20:49:58.278Z,97859.87
2023-05-21T20:52:32.661Z,97858.13
2023-05-21T20:55:06.655Z,97860.67
2023-05-21T20:57:39.815Z,97861.13
2023-05-21T21:00:16.258Z,97860.60
2023-05-21T21:02:50.092Z,97863.42
2023-05-21T21:05:24.612Z,97866.03
2023-05-21T21:07:57.411Z,97867.40
2023-05-21T21:10:30.489Z,97867.29
2023-05-21T21:13:03.956Z,97867.05
2023-05-21T21:15:37.582Z,97865.13
2023-05-21T21:18:14.063Z,97865.34
2023-05-21T21:20:49.967Z,97865.73
2023-05-21T21:23:22.915Z,97868.33
2023-05-21T21:25:56.245Z,97864.08
2023-05-21T21:28:28.818Z,97861.08
2023-05-21T21:31:01.587Z,97860.22
2023-05-21T21:33:34.489Z,97861.22
2023-05-21T21:36:07.933Z,97858.75
2023-05-21T21:38:40.562Z,97858.57
2023-05-21T21:41:13.610Z,97858.73
2023-05-21T21:43:46.287Z,97856.11
2023-05-21T21:46:19.243Z,97859.84
2023-05-21T21:48:52.008Z,97859.34
2023-05-21T21:51:27.708Z,97858.63
2023-05-21T21:54:00.351Z,97856.23
2023-05-21T21:56:33.318Z,97856.77
2023-05-21T21:59:06.129Z,97859.14
2023-05-21T22:01:39.431Z,97858.97
2023-05-21T22:04:10.310Z,97858.20
2023-05-21T22:06:45.621Z,97855.99
2023-05-21T22:09:18.883Z,97855.83
2023-05-21T22:11:49.628Z,97857.01
2023-05-21T22:14:21.983Z,97857.67
2023-05-21T22:16:55.649Z,97855.81
2023-05-21T22:19:28.440Z,97861.36
2023-05-21T22:22:02.470Z,97857.44
2023-05-21T22:24:35.362Z,97856.23
2023-05-21T22:27:08.715Z,97857.27
2023-05-21T22:29:41.654Z,97855.58
2023-05-21T22:32:14.507Z,97853.39
2023-05-21T22:34:47.112Z,97853.16
2023-05-21T22:37:19.801Z,97846.36
2023-05-21T22:39:52.483Z,97846.52
2023-05-21T22:42:25.465Z,97842.19
2023-05-21T22:44:58.233Z,97844.45
2023-05-21T22:47:31.007Z,97841.63
2023-05-21T22:50:04.849Z,97835.13
2023-05-21T22:52:39.871Z,97838.61
2023-05-21T22:55:12.901Z,97840.56
2023-05-21T22:57:46.669Z,97841.10
2023-05-21T23:00:20.682Z,97835.57
2023-05-21T23:02:54.724Z,97832.86
2023-05-21T23:05:28.319Z,97832.25
2023-05-21T23:07:59.276Z,97828.83
2023-05-21T23:10:31.761Z,97830.88
2023-05-21T23:13:04.581Z,97823.54
2023-05-21T23:15:39.208Z,97825.52
2023-05-21T23:18:12.189Z,97824.64
2023-05-21T23:20:44.815Z,97823.33
2023-05-21T23:23:17.810Z,97822.27
2023-05-21T23:25:52.370Z,97821.98
2023-05-21T23:28:25.120Z,97820.92
2023-05-21T23:30:59.430Z,97820.41
2023-05-21T23:33:32.228Z,97817.91
2023-05-21T23:36:05.010Z,97816.04
2023-05-21T23:38:39.211Z,97816.66
2023-05-21T23:41:11.817Z,97816.12
2023-05-21T23:43:45.322Z,97814.21
2023-05-21T23:46:17.625Z,97812.83
2023-05-21T23:48:50.329Z,97809.11
2023-05-21T23:51:21.736Z,97810.99
2023-05-21T23:53:54.903Z,97810.44
2023-05-21T23:56:30.640Z,97808.52
2023-05-21T23:59:05.409Z,97808.94
